createdAt,value
2018-05-23T00:00:49.869Z,0.00
2018-05-23T00:01:49.803Z,0.00
2018-05-23T00:02:49.727Z,0.00
2018-05-23T00:03:49.655Z,0.00
2018-05-23T00:04:49.599Z,0.00
2018-05-23T00:05:49.514Z,0.00
2018-05-23T00:06:49.446Z,0.00
2018-05-23T00:07:49.368Z,0.00
2018-05-23T00:08:49.328Z,0.00
2018-05-23T00:09:49.228Z,0.00
2018-05-23T00:10:49.161Z,0.00
2018-05-23T00:11:49.085Z,0.00
2018-05-23T00:12:49.017Z,0.00
2018-05-23T00:13:48.939Z,0.00
2018-05-23T00:14:48.870Z,0.00
2018-05-23T00:15:48.806Z,0.00
2018-05-23T00:16:48.726Z,0.00
2018-05-23T00:17:48.660Z,0.00
2018-05-23T00:18:48.593Z,0.00
2018-05-23T00:19:48.515Z,0.00
2018-05-23T00:20:48.441Z,0.00
2018-05-23T00:21:48.372Z,0.00
2018-05-23T00:22:48.295Z,0.00
2018-05-23T00:23:48.230Z,0.00
2018-05-23T00:24:48.154Z,0.00
2018-05-23T00:25:48.087Z,0.00
2018-05-23T00:26:48.009Z,0.00
2018-05-23T00:27:47.941Z,0.00
2018-05-23T00:28:47.868Z,0.00
2018-05-23T00:29:47.800Z,0.00
2018-05-23T00:30:47.725Z,0.00
2018-05-23T00:31:47.675Z,0.00
2018-05-23T00:32:47.585Z,0.00
2018-05-23T00:33:47.513Z,0.00
2018-05-23T00:34:47.444Z,0.00
2018-05-23T00:35:47.363Z,0.00
2018-05-23T00:36:47.313Z,0.00
2018-05-23T00:37:47.270Z,0.00
2018-05-23T00:38:47.162Z,0.00
2018-05-23T00:39:47.099Z,0.00
2018-05-23T00:40:47.011Z,0.00
2018-05-23T00:41:46.941Z,0.00
2018-05-23T00:42:46.863Z,0.00
2018-05-23T00:43:46.812Z,0.00
2018-05-23T00:44:46.727Z,0.00
2018-05-23T00:45:46.660Z,0.00
2018-05-23T00:46:46.587Z,0.00
2018-05-23T00:47:46.506Z,0.00
2018-05-23T00:48:46.435Z,0.00
2018-05-23T00:49:46.367Z,0.00
2018-05-23T00:50:46.295Z,0.00
2018-05-23T00:51:46.228Z,0.00
2018-05-23T00:52:46.146Z,0.00
2018-05-23T00:53:46.080Z,0.00
2018-05-23T00:54:46.014Z,0.00
2018-05-23T00:55:45.938Z,0.00
2018-05-23T00:56:45.873Z,0.00
2018-05-23T00:57:45.805Z,0.00
2018-05-23T00:58:45.735Z,0.00
2018-05-23T00:59:45.650Z,0.00
2018-05-23T01:00:45.587Z,0.00
2018-05-23T01:01:45.502Z,0.00
2018-05-23T01:02:45.441Z,0.00
2018-05-23T01:03:45.366Z,0.00
2018-05-23T01:04:45.359Z,0.00
2018-05-23T01:05:45.224Z,0.00
2018-05-23T01:06:45.158Z,0.00
2018-05-23T01:07:45.080Z,0.00
2018-05-23T01:08:45.009Z,0.00
2018-05-23T01:09:45.016Z,0.00
2018-05-23T01:10:44.902Z,0.00
2018-05-23T01:11:44.834Z,0.00
2018-05-23T01:12:44.724Z,0.00
2018-05-23T01:13:44.650Z,0.00
2018-05-23T01:14:44.583Z,0.00
2018-05-23T01:15:44.510Z,0.00
2018-05-23T01:16:44.438Z,0.00
2018-05-23T01:17:44.367Z,0.00
2018-05-23T01:18:44.292Z,0.00
2018-05-23T01:19:44.225Z,0.00
2018-05-23T01:20:44.150Z,0.00
2018-05-23T01:21:44.082Z,0.00
2018-05-23T01:22:44.006Z,0.00
2018-05-23T01:23:43.936Z,0.00
2018-05-23T01:24:43.865Z,0.00
2018-05-23T01:25:43.793Z,0.00
2018-05-23T01:26:43.721Z,0.00
2018-05-23T01:27:43.650Z,0.00
2018-05-23T01:28:43.581Z,0.00
2018-05-23T01:29:43.507Z,0.00
2018-05-23T01:30:43.429Z,0.00
2018-05-23T01:31:43.361Z,0.00
2018-05-23T01:32:43.293Z,0.00
2018-05-23T01:33:43.219Z,0.00
2018-05-23T01:34:43.152Z,0.00
2018-05-23T01:35:43.079Z,0.00
2018-05-23T01:36:43.016Z,0.00
2018-05-23T01:37:42.941Z,0.00
2018-05-23T01:38:42.861Z,0.00
2018-05-23T01:39:42.805Z,0.00
2018-05-23T01:40:42.719Z,0.00
2018-05-23T01:41:42.656Z,0.00
2018-05-23T01:42:42.573Z,0.00
2018-05-23T01:43:42.507Z,0.00
2018-05-23T01:44:42.434Z,0.00
2018-05-23T01:45:42.362Z,0.00
2018-05-23T01:46:42.334Z,0.00
2018-05-23T01:47:42.316Z,0.00
2018-05-23T01:48:42.141Z,0.00
2018-05-23T01:49:42.125Z,0.00
2018-05-23T01:50:42.005Z,0.00
2018-05-23T01:51:41.930Z,0.00
2018-05-23T01:52:41.861Z,0.00
2018-05-23T01:53:41.791Z,0.00
2018-05-23T01:54:41.717Z,0.00
2018-05-23T01:55:41.645Z,0.00
2018-05-23T01:56:41.585Z,0.00
2018-05-23T01:57:41.502Z,0.00
2018-05-23T01:58:41.429Z,0.00
2018-05-23T01:59:41.356Z,0.00
2018-05-23T02:00:41.290Z,0.00
2018-05-23T02:01:41.219Z,0.00
2018-05-23T02:02:41.146Z,0.00
2018-05-23T02:03:41.070Z,0.00
2018-05-23T02:04:40.999Z,0.00
2018-05-23T02:05:40.937Z,0.00
2018-05-23T02:06:40.850Z,0.00
2018-05-23T02:07:40.783Z,0.00
2018-05-23T02:08:40.713Z,0.00
2018-05-23T02:09:40.650Z,0.00
2018-05-23T02:10:40.567Z,0.00
2018-05-23T02:11:40.499Z,0.00
2018-05-23T02:12:40.422Z,0.00
2018-05-23T02:13:40.359Z,0.00
2018-05-23T02:14:40.280Z,0.00
2018-05-23T02:15:40.220Z,0.00
2018-05-23T02:16:40.135Z,0.00
2018-05-23T02:17:40.067Z,0.00
2018-05-23T02:18:39.995Z,0.00
2018-05-23T02:19:39.923Z,0.00
2018-05-23T02:20:39.849Z,0.00
2018-05-23T02:21:39.779Z,0.00
2018-05-23T02:22:39.708Z,0.00
2018-05-23T02:23:39.630Z,0.00
2018-05-23T02:24:39.561Z,0.00
2018-05-23T02:25:39.503Z,0.00
2018-05-23T02:26:39.421Z,0.00
2018-05-23T02:27:39.351Z,0.00
2018-05-23T02:28:39.284Z,0.00
2018-05-23T02:29:39.198Z,0.00
2018-05-23T02:30:39.131Z,0.00
2018-05-23T02:31:39.065Z,0.00
2018-05-23T02:32:38.988Z,0.00
2018-05-23T02:33:38.914Z,0.00
2018-05-23T02:34:38.845Z,0.00
2018-05-23T02:35:38.785Z,0.00
2018-05-23T02:36:38.703Z,0.00
2018-05-23T02:37:38.625Z,0.00
2018-05-23T02:38:38.560Z,0.00
2018-05-23T02:39:38.487Z,0.00
2018-05-23T02:40:38.419Z,0.00
2018-05-23T02:41:38.346Z,0.00
2018-05-23T02:42:38.272Z,0.00
2018-05-23T02:43:38.196Z,0.00
2018-05-23T02:44:38.128Z,0.00
2018-05-23T02:45:38.060Z,0.00
2018-05-23T02:46:37.977Z,0.00
2018-05-23T02:47:37.909Z,0.00
2018-05-23T02:48:37.840Z,0.00
2018-05-23T02:49:37.764Z,0.00
2018-05-23T02:50:37.693Z,0.00
2018-05-23T02:51:37.621Z,0.00
2018-05-23T02:52:37.552Z,0.00
2018-05-23T02:53:37.483Z,0.00
2018-05-23T02:54:37.404Z,0.00
2018-05-23T02:55:37.333Z,0.00
2018-05-23T02:56:37.264Z,0.00
2018-05-23T02:57:37.187Z,0.00
2018-05-23T02:58:37.162Z,0.00
2018-05-23T02:59:37.042Z,0.00
2018-05-23T03:00:36.977Z,0.00
2018-05-23T03:01:36.901Z,0.00
2018-05-23T03:02:36.840Z,0.00
2018-05-23T03:03:36.751Z,4.00
2018-05-23T03:04:36.688Z,4.00
2018-05-23T03:05:36.616Z,4.00
2018-05-23T03:06:36.562Z,0.00
2018-05-23T03:07:36.468Z,4.00
2018-05-23T03:08:36.397Z,4.00
2018-05-23T03:09:36.338Z,4.00
2018-05-23T03:10:36.251Z,8.00
2018-05-23T03:11:36.199Z,4.00
2018-05-23T03:12:36.185Z,8.00
2018-05-23T03:13:36.037Z,8.00
2018-05-23T03:14:35.964Z,4.00
2018-05-23T03:15:35.972Z,8.00
2018-05-23T03:16:35.816Z,12.00
2018-05-23T03:17:35.754Z,8.00
2018-05-23T03:18:35.682Z,12.00
2018-05-23T03:19:35.605Z,12.00
2018-05-23T03:20:35.568Z,12.00
2018-05-23T03:21:35.463Z,12.00
2018-05-23T03:22:35.384Z,16.00
2018-05-23T03:23:35.315Z,20.00
2018-05-23T03:24:35.254Z,20.00
2018-05-23T03:25:35.175Z,20.00
2018-05-23T03:26:35.113Z,20.00
2018-05-23T03:27:35.036Z,24.00
2018-05-23T03:28:34.954Z,24.00
2018-05-23T03:29:34.903Z,28.00
2018-05-23T03:30:34.837Z,28.00
2018-05-23T03:31:34.742Z,36.00
2018-05-23T03:32:34.669Z,36.00
2018-05-23T03:33:34.595Z,36.00
2018-05-23T03:34:34.524Z,40.00
2018-05-23T03:35:34.456Z,40.00
2018-05-23T03:36:34.381Z,44.00
2018-05-23T03:37:34.308Z,44.00
2018-05-23T03:38:34.233Z,52.00
2018-05-23T03:39:34.169Z,56.00
2018-05-23T03:40:34.090Z,60.00
2018-05-23T03:41:34.024Z,60.00
2018-05-23T03:42:33.948Z,64.00
2018-05-23T03:43:33.876Z,68.00
2018-05-23T03:44:33.809Z,72.00
2018-05-23T03:45:33.735Z,76.00
2018-05-23T03:46:33.660Z,80.00
2018-05-23T03:47:33.589Z,88.00
2018-05-23T03:48:33.526Z,92.00
2018-05-23T03:49:33.453Z,100.00
2018-05-23T03:50:33.377Z,104.00
2018-05-23T03:51:33.306Z,108.00
2018-05-23T03:52:33.233Z,116.00
2018-05-23T03:53:33.157Z,128.00
2018-05-23T03:54:33.088Z,140.00
2018-05-23T03:55:33.010Z,152.00
2018-05-23T03:56:32.937Z,164.00
2018-05-23T03:57:32.893Z,172.00
2018-05-23T03:58:32.796Z,184.00
2018-05-23T03:59:32.734Z,196.00
2018-05-23T04:00:32.653Z,204.00
2018-05-23T04:01:32.582Z,212.00
2018-05-23T04:02:32.513Z,220.00
2018-05-23T04:03:32.435Z,228.00
2018-05-23T04:04:32.364Z,244.00
2018-05-23T04:05:32.292Z,260.00
2018-05-23T04:06:32.219Z,276.00
2018-05-23T04:07:32.148Z,288.00
2018-05-23T04:08:32.107Z,300.00
2018-05-23T04:09:32.017Z,308.00
2018-05-23T04:10:31.934Z,316.00
2018-05-23T04:11:31.887Z,324.00
2018-05-23T04:12:31.789Z,332.00
2018-05-23T04:13:31.721Z,340.00
2018-05-23T04:14:31.644Z,348.00
2018-05-23T04:15:31.670Z,352.00
2018-05-23T04:16:31.500Z,356.00
2018-05-23T04:17:31.429Z,364.00
2018-05-23T04:18:31.355Z,368.00
2018-05-23T04:19:31.289Z,376.00
2018-05-23T04:20:31.213Z,380.00
2018-05-23T04:21:31.149Z,380.00
2018-05-23T04:22:31.072Z,384.00
2018-05-23T04:23:30.997Z,384.00
2018-05-23T04:24:30.927Z,380.00
2018-05-23T04:25:30.860Z,380.00
2018-05-23T04:26:30.784Z,372.00
2018-05-23T04:27:30.712Z,364.00
2018-05-23T04:28:30.639Z,360.00
2018-05-23T04:29:30.568Z,352.00
2018-05-23T04:30:30.497Z,348.00
2018-05-23T04:31:30.421Z,344.00
2018-05-23T04:32:30.385Z,340.00
2018-05-23T04:33:30.281Z,344.00
2018-05-23T04:34:30.208Z,348.00
2018-05-23T04:35:30.134Z,352.00
2018-05-23T04:36:30.068Z,360.00
2018-05-23T04:37:29.995Z,368.00
2018-05-23T04:38:29.920Z,384.00
2018-05-23T04:39:29.852Z,400.00
2018-05-23T04:40:29.772Z,420.00
2018-05-23T04:41:29.709Z,440.00
2018-05-23T04:42:29.633Z,460.00
2018-05-23T04:43:29.566Z,488.00
2018-05-23T04:44:29.487Z,512.00
2018-05-23T04:45:29.416Z,536.00
2018-05-23T04:46:29.342Z,556.00
2018-05-23T04:47:29.271Z,572.00
2018-05-23T04:48:29.201Z,584.00
2018-05-23T04:49:29.128Z,596.00
2018-05-23T04:50:29.055Z,608.00
2018-05-23T04:51:28.987Z,612.00
2018-05-23T04:52:28.923Z,628.00
2018-05-23T04:53:28.864Z,640.00
2018-05-23T04:54:28.771Z,664.00
2018-05-23T04:55:28.707Z,684.00
2018-05-23T04:56:28.662Z,712.00
2018-05-23T04:57:28.553Z,736.00
2018-05-23T04:58:28.481Z,768.00
2018-05-23T04:59:28.413Z,800.00
2018-05-23T05:00:28.337Z,836.00
2018-05-23T05:01:28.265Z,872.00
2018-05-23T05:02:28.197Z,908.00
2018-05-23T05:03:28.125Z,948.00
2018-05-23T05:04:28.046Z,992.00
2018-05-23T05:05:27.984Z,1028.00
2018-05-23T05:06:27.907Z,1060.00
2018-05-23T05:07:27.832Z,1088.00
2018-05-23T05:08:27.779Z,1120.00
2018-05-23T05:09:27.695Z,1144.00
2018-05-23T05:10:27.629Z,1160.00
2018-05-23T05:11:27.551Z,1172.00
2018-05-23T05:12:27.479Z,1180.00
2018-05-23T05:13:27.404Z,1188.00
2018-05-23T05:14:27.345Z,1184.00
2018-05-23T05:15:27.259Z,1184.00
2018-05-23T05:16:27.189Z,1184.00
2018-05-23T05:17:27.119Z,1184.00
2018-05-23T05:18:27.051Z,1188.00
2018-05-23T05:19:26.974Z,1192.00
2018-05-23T05:20:26.903Z,1196.00
2018-05-23T05:21:26.835Z,1200.00
2018-05-23T05:22:26.763Z,1204.00
2018-05-23T05:23:26.689Z,1208.00
2018-05-23T05:24:26.625Z,1216.00
2018-05-23T05:25:26.546Z,1220.00
2018-05-23T05:26:26.473Z,1232.00
2018-05-23T05:27:26.401Z,1240.00
2018-05-23T05:28:26.334Z,1256.00
2018-05-23T05:29:26.270Z,1280.00
2018-05-23T05:30:26.204Z,1304.00
2018-05-23T05:31:26.116Z,1328.00
2018-05-23T05:32:26.041Z,1352.00
2018-05-23T05:33:25.971Z,1376.00
2018-05-23T05:34:25.898Z,1404.00
2018-05-23T05:35:25.828Z,1428.00
2018-05-23T05:36:25.778Z,1452.00
2018-05-23T05:37:25.742Z,1480.00
2018-05-23T05:38:25.619Z,1504.00
2018-05-23T05:39:25.613Z,1524.00
2018-05-23T05:40:25.488Z,1548.00
2018-05-23T05:41:25.402Z,1576.00
2018-05-23T05:42:25.331Z,1608.00
2018-05-23T05:43:25.255Z,1640.00
2018-05-23T05:44:25.222Z,1672.00
2018-05-23T05:45:25.117Z,1708.00
2018-05-23T05:46:25.042Z,1744.00
2018-05-23T05:47:24.980Z,1784.00
2018-05-23T05:48:24.919Z,1828.00
2018-05-23T05:49:24.831Z,1876.00
2018-05-23T05:50:24.758Z,1932.00
2018-05-23T05:51:24.697Z,2004.00
2018-05-23T05:52:24.611Z,2096.00
2018-05-23T05:53:24.538Z,2212.00
2018-05-23T05:54:24.473Z,2332.00
2018-05-23T05:55:24.412Z,2460.00
2018-05-23T05:56:24.328Z,2580.00
2018-05-23T05:57:24.260Z,2684.00
2018-05-23T05:58:24.181Z,2776.00
2018-05-23T05:59:24.120Z,2860.00
2018-05-23T06:00:24.043Z,2948.00
2018-05-23T06:01:23.971Z,3024.00
2018-05-23T06:02:23.896Z,3108.00
2018-05-23T06:03:23.831Z,3176.00
2018-05-23T06:04:23.756Z,3236.00
2018-05-23T06:05:23.686Z,3296.00
2018-05-23T06:06:23.621Z,3348.00
2018-05-23T06:07:23.559Z,3416.00
2018-05-23T06:08:23.477Z,3508.00
2018-05-23T06:09:23.465Z,3628.00
2018-05-23T06:10:23.333Z,3776.00
2018-05-23T06:11:23.255Z,3928.00
2018-05-23T06:12:23.198Z,4084.00
2018-05-23T06:13:23.114Z,4204.00
2018-05-23T06:14:23.063Z,4280.00
2018-05-23T06:15:22.972Z,4284.00
2018-05-23T06:16:22.914Z,4256.00
2018-05-23T06:17:22.832Z,4228.00
2018-05-23T06:18:22.761Z,4204.00
2018-05-23T06:19:22.691Z,4180.00
2018-05-23T06:20:22.631Z,4144.00
2018-05-23T06:21:22.551Z,4104.00
2018-05-23T06:22:22.493Z,4056.00
2018-05-23T06:23:22.491Z,3996.00
2018-05-23T06:24:22.353Z,3924.00
2018-05-23T06:25:22.268Z,3856.00
2018-05-23T06:26:22.194Z,3832.00
2018-05-23T06:27:22.123Z,3824.00
2018-05-23T06:28:22.057Z,3820.00
2018-05-23T06:29:21.985Z,3840.00
2018-05-23T06:30:21.996Z,3884.00
2018-05-23T06:31:21.843Z,3924.00
2018-05-23T06:32:21.776Z,3936.00
2018-05-23T06:33:21.699Z,3900.00
2018-05-23T06:34:21.629Z,3848.00
2018-05-23T06:35:21.573Z,3768.00
2018-05-23T06:36:21.487Z,3680.00
2018-05-23T06:37:21.421Z,3632.00
2018-05-23T06:38:21.347Z,3612.00
2018-05-23T06:39:21.287Z,3596.00
2018-05-23T06:40:21.218Z,3552.00
2018-05-23T06:41:21.135Z,3524.00
2018-05-23T06:42:21.064Z,3496.00
2018-05-23T06:43:20.995Z,3484.00
2018-05-23T06:44:20.927Z,3448.00
2018-05-23T06:45:20.854Z,3408.00
2018-05-23T06:46:20.780Z,3380.00
2018-05-23T06:47:20.710Z,3380.00
2018-05-23T06:48:20.644Z,3356.00
2018-05-23T06:49:20.576Z,3332.00
2018-05-23T06:50:20.499Z,3312.00
2018-05-23T06:51:20.427Z,3272.00
2018-05-23T06:52:20.379Z,3212.00
2018-05-23T06:53:20.370Z,3180.00
2018-05-23T06:54:20.219Z,3164.00
2018-05-23T06:55:20.145Z,3164.00
2018-05-23T06:56:20.078Z,3136.00
2018-05-23T06:57:20.008Z,3136.00
2018-05-23T06:58:19.937Z,3172.00
2018-05-23T06:59:19.865Z,3196.00
2018-05-23T07:00:19.798Z,3216.00
2018-05-23T07:01:19.797Z,3208.00
2018-05-23T07:02:19.661Z,3260.00
2018-05-23T07:03:19.594Z,3324.00
2018-05-23T07:04:19.516Z,3384.00
2018-05-23T07:05:19.446Z,3460.00
2018-05-23T07:06:19.377Z,3500.00
2018-05-23T07:07:19.303Z,3508.00
2018-05-23T07:08:19.236Z,3552.00
2018-05-23T07:09:19.164Z,3592.00
2018-05-23T07:10:19.092Z,3636.00
2018-05-23T07:11:19.023Z,3680.00
2018-05-23T07:12:18.953Z,3704.00
2018-05-23T07:13:18.886Z,3724.00
2018-05-23T07:14:18.818Z,3756.00
2018-05-23T07:15:18.742Z,3848.00
2018-05-23T07:16:18.675Z,3972.00
2018-05-23T07:17:18.601Z,4112.00
2018-05-23T07:18:18.533Z,4268.00
2018-05-23T07:19:18.464Z,4428.00
2018-05-23T07:20:18.397Z,4604.00
2018-05-23T07:21:18.323Z,4756.00
2018-05-23T07:22:18.257Z,4916.00
2018-05-23T07:23:18.181Z,5080.00
2018-05-23T07:24:18.111Z,5268.00
2018-05-23T07:25:18.051Z,5448.00
2018-05-23T07:26:17.970Z,5604.00
2018-05-23T07:27:17.903Z,5732.00
2018-05-23T07:28:17.832Z,5768.00
2018-05-23T07:29:17.762Z,5752.00
2018-05-23T07:30:17.690Z,5648.00
2018-05-23T07:31:17.619Z,5540.00
2018-05-23T07:32:17.551Z,5440.00
2018-05-23T07:33:17.487Z,5372.00
2018-05-23T07:34:17.409Z,5344.00
2018-05-23T07:35:17.341Z,5348.00
2018-05-23T07:36:17.273Z,5312.00
2018-05-23T07:37:17.206Z,5344.00
2018-05-23T07:38:17.217Z,5376.00
2018-05-23T07:39:17.061Z,5364.00
2018-05-23T07:40:16.991Z,5308.00
2018-05-23T07:41:16.945Z,5260.00
2018-05-23T07:42:16.864Z,5172.00
2018-05-23T07:43:16.779Z,5032.00
2018-05-23T07:44:16.716Z,4880.00
2018-05-23T07:45:16.648Z,4732.00
2018-05-23T07:46:16.571Z,4584.00
2018-05-23T07:47:16.507Z,4488.00
2018-05-23T07:48:16.434Z,4384.00
2018-05-23T07:49:16.376Z,4324.00
2018-05-23T07:50:16.290Z,4272.00
2018-05-23T07:51:16.228Z,4220.00
2018-05-23T07:52:16.172Z,4248.00
2018-05-23T07:53:16.085Z,4236.00
2018-05-23T07:54:16.016Z,4320.00
2018-05-23T07:55:15.949Z,4452.00
2018-05-23T07:56:15.876Z,4612.00
2018-05-23T07:57:15.816Z,4804.00
2018-05-23T07:58:15.747Z,4964.00
2018-05-23T07:59:15.669Z,5048.00
2018-05-23T08:00:15.599Z,5112.00
2018-05-23T08:01:15.525Z,5244.00
2018-05-23T08:02:15.477Z,5456.00
2018-05-23T08:03:15.391Z,5796.00
2018-05-23T08:04:15.316Z,6368.00
2018-05-23T08:05:15.278Z,6864.00
2018-05-23T08:06:15.184Z,7292.00
2018-05-23T08:07:15.110Z,7696.00
2018-05-23T08:08:15.045Z,8036.00
2018-05-23T08:09:14.976Z,8076.00
2018-05-23T08:10:14.919Z,7972.00
2018-05-23T08:11:14.855Z,7720.00
2018-05-23T08:12:14.763Z,7592.00
2018-05-23T08:13:14.715Z,7432.00
2018-05-23T08:14:14.623Z,7304.00
2018-05-23T08:15:14.559Z,7176.00
2018-05-23T08:16:14.489Z,7132.00
2018-05-23T08:17:14.442Z,7312.00
2018-05-23T08:18:14.355Z,7640.00
2018-05-23T08:19:14.285Z,8224.00
2018-05-23T08:20:14.212Z,8576.00
2018-05-23T08:21:14.146Z,9000.00
2018-05-23T08:22:14.078Z,9500.00
2018-05-23T08:23:14.009Z,10340.00
2018-05-23T08:24:13.938Z,11064.00
2018-05-23T08:25:13.876Z,11352.00
2018-05-23T08:26:13.800Z,11636.00
2018-05-23T08:27:13.736Z,11684.00
2018-05-23T08:28:13.661Z,11900.00
2018-05-23T08:29:13.596Z,12100.00
2018-05-23T08:30:13.527Z,12244.00
2018-05-23T08:31:13.456Z,12160.00
2018-05-23T08:32:13.396Z,12152.00
2018-05-23T08:33:13.350Z,12016.00
2018-05-23T08:34:13.250Z,11708.00
2018-05-23T08:35:13.184Z,11336.00
2018-05-23T08:36:13.134Z,10824.00
2018-05-23T08:37:13.067Z,10392.00
2018-05-23T08:38:13.056Z,12900.00
2018-05-23T08:39:12.933Z,11536.00
2018-05-23T08:40:12.848Z,10588.00
2018-05-23T08:41:12.771Z,10492.00
2018-05-23T08:42:12.711Z,10144.00
2018-05-23T08:43:12.638Z,10148.00
2018-05-23T08:44:12.610Z,10448.00
2018-05-23T08:45:12.512Z,14148.00
2018-05-23T08:46:12.438Z,13236.00
2018-05-23T08:47:12.388Z,11252.00
2018-05-23T08:48:12.303Z,11188.00
2018-05-23T08:49:12.242Z,8884.00
2018-05-23T08:50:12.170Z,8220.00
2018-05-23T08:51:12.110Z,7776.00
2018-05-23T08:52:12.037Z,7104.00
2018-05-23T08:53:11.972Z,6580.00
2018-05-23T08:54:11.897Z,6148.00
2018-05-23T08:55:11.890Z,5968.00
2018-05-23T08:56:11.769Z,5828.00
2018-05-23T08:57:11.697Z,5684.00
2018-05-23T08:58:11.634Z,5592.00
2018-05-23T08:59:11.561Z,5556.00
2018-05-23T09:00:11.501Z,5596.00
2018-05-23T09:01:11.434Z,5776.00
2018-05-23T09:02:11.360Z,6428.00
2018-05-23T09:03:11.291Z,7268.00
2018-05-23T09:04:11.223Z,8904.00
2018-05-23T09:05:11.156Z,9368.00
2018-05-23T09:06:11.090Z,9904.00
2018-05-23T09:07:11.022Z,10764.00
2018-05-23T09:08:10.950Z,12180.00
2018-05-23T09:09:10.883Z,14416.00
2018-05-23T09:10:10.813Z,21824.00
2018-05-23T09:11:10.770Z,27744.00
2018-05-23T09:12:10.775Z,32448.00
2018-05-23T09:13:10.619Z,40352.00
2018-05-23T09:14:10.545Z,23872.00
2018-05-23T09:15:10.493Z,24608.00
2018-05-23T09:16:10.410Z,19776.00
2018-05-23T09:17:10.346Z,20096.00
2018-05-23T09:18:10.281Z,25728.00
2018-05-23T09:19:10.214Z,17184.00
2018-05-23T09:20:10.144Z,12464.00
2018-05-23T09:21:10.089Z,11384.00
2018-05-23T09:22:10.017Z,10128.00
2018-05-23T09:23:09.945Z,9320.00
2018-05-23T09:24:09.883Z,8860.00
2018-05-23T09:25:09.817Z,8120.00
2018-05-23T09:26:09.747Z,7784.00
2018-05-23T09:27:09.682Z,7448.00
2018-05-23T09:28:09.615Z,6980.00
2018-05-23T09:29:09.552Z,6568.00
2018-05-23T09:30:09.488Z,6264.00
2018-05-23T09:31:09.426Z,6080.00
2018-05-23T09:32:09.400Z,5884.00
2018-05-23T09:33:09.284Z,5712.00
2018-05-23T09:34:09.214Z,5576.00
2018-05-23T09:35:09.149Z,5336.00
2018-05-23T09:36:09.081Z,5084.00
2018-05-23T09:37:09.029Z,4828.00
2018-05-23T09:38:08.941Z,4640.00
2018-05-23T09:39:08.891Z,4588.00
2018-05-23T09:40:08.811Z,4492.00
2018-05-23T09:41:08.742Z,4404.00
2018-05-23T09:42:08.756Z,4308.00
2018-05-23T09:43:08.609Z,4144.00
2018-05-23T09:44:08.549Z,3976.00
2018-05-23T09:45:08.495Z,3872.00
2018-05-23T09:46:08.408Z,3868.00
2018-05-23T09:47:08.343Z,3956.00
2018-05-23T09:48:08.283Z,4164.00
2018-05-23T09:49:08.211Z,4500.00
2018-05-23T09:50:08.140Z,4832.00
2018-05-23T09:51:08.089Z,5128.00
2018-05-23T09:52:08.016Z,5400.00
2018-05-23T09:53:07.941Z,5716.00
2018-05-23T09:54:07.865Z,6024.00
2018-05-23T09:55:07.899Z,6344.00
2018-05-23T09:56:07.735Z,6640.00
2018-05-23T09:57:07.671Z,6888.00
2018-05-23T09:58:07.598Z,7064.00
2018-05-23T09:59:07.534Z,7164.00
2018-05-23T10:00:07.480Z,7192.00
2018-05-23T10:01:07.398Z,7136.00
2018-05-23T10:02:07.345Z,7048.00
2018-05-23T10:03:07.265Z,6900.00
2018-05-23T10:04:07.196Z,6732.00
2018-05-23T10:05:07.130Z,6560.00
2018-05-23T10:06:07.066Z,6436.00
2018-05-23T10:07:06.993Z,6340.00
2018-05-23T10:08:06.931Z,6260.00
2018-05-23T10:09:06.867Z,6196.00
2018-05-23T10:10:06.793Z,6168.00
2018-05-23T10:11:06.725Z,6064.00
2018-05-23T10:12:06.663Z,6000.00
2018-05-23T10:13:06.603Z,5860.00
2018-05-23T10:14:06.523Z,5792.00
2018-05-23T10:15:06.475Z,5724.00
2018-05-23T10:16:06.382Z,5700.00
2018-05-23T10:17:06.334Z,5604.00
2018-05-23T10:18:06.255Z,5564.00
2018-05-23T10:19:06.194Z,5396.00
2018-05-23T10:20:06.121Z,5328.00
2018-05-23T10:21:06.049Z,5164.00
2018-05-23T10:22:05.995Z,5148.00
2018-05-23T10:23:05.913Z,5164.00
2018-05-23T10:24:05.853Z,5236.00
2018-05-23T10:25:05.790Z,5320.00
2018-05-23T10:26:05.730Z,5388.00
2018-05-23T10:27:05.637Z,5468.00
2018-05-23T10:28:05.590Z,5476.00
2018-05-23T10:29:05.511Z,5516.00
2018-05-23T10:30:05.452Z,5564.00
2018-05-23T10:31:05.374Z,5476.00
2018-05-23T10:32:05.323Z,5508.00
2018-05-23T10:33:05.252Z,5376.00
2018-05-23T10:34:05.171Z,5256.00
2018-05-23T10:35:05.111Z,5184.00
2018-05-23T10:36:05.041Z,5068.00
2018-05-23T10:37:04.978Z,4928.00
2018-05-23T10:38:04.893Z,4784.00
2018-05-23T10:39:04.879Z,4636.00
2018-05-23T10:40:04.765Z,4564.00
2018-05-23T10:41:04.698Z,4540.00
2018-05-23T10:42:04.624Z,4484.00
2018-05-23T10:43:04.563Z,4432.00
2018-05-23T10:44:04.585Z,4344.00
2018-05-23T10:45:04.427Z,4256.00
2018-05-23T10:46:04.353Z,4196.00
2018-05-23T10:47:04.283Z,4196.00
2018-05-23T10:48:04.217Z,4200.00
2018-05-23T10:49:04.147Z,4260.00
2018-05-23T10:50:04.080Z,4356.00
2018-05-23T10:51:04.011Z,4456.00
2018-05-23T10:52:04.028Z,4556.00
2018-05-23T10:53:03.877Z,4660.00
2018-05-23T10:54:03.805Z,4684.00
2018-05-23T10:55:03.738Z,4748.00
2018-05-23T10:56:03.665Z,4732.00
2018-05-23T10:57:03.653Z,4716.00
2018-05-23T10:58:03.525Z,4720.00
2018-05-23T10:59:03.460Z,4788.00
2018-05-23T11:00:03.457Z,4740.00
2018-05-23T11:01:03.327Z,4680.00
2018-05-23T11:02:03.263Z,4600.00
2018-05-23T11:03:03.288Z,4544.00
2018-05-23T11:04:03.116Z,4528.00
2018-05-23T11:05:03.046Z,4508.00
2018-05-23T11:06:02.980Z,4476.00
2018-05-23T11:07:02.912Z,4416.00
2018-05-23T11:08:02.839Z,4332.00
2018-05-23T11:09:02.786Z,4248.00
2018-05-23T11:10:02.704Z,4168.00
2018-05-23T11:11:02.655Z,4152.00
2018-05-23T11:12:02.563Z,4168.00
2018-05-23T11:13:02.503Z,4216.00
2018-05-23T11:14:02.429Z,4236.00
2018-05-23T11:15:02.351Z,4280.00
2018-05-23T11:16:02.283Z,4336.00
2018-05-23T11:17:02.215Z,4472.00
2018-05-23T11:18:02.147Z,4668.00
2018-05-23T11:19:02.076Z,4792.00
2018-05-23T11:20:02.008Z,4848.00
2018-05-23T11:21:01.929Z,4908.00
2018-05-23T11:22:01.891Z,4948.00
2018-05-23T11:23:01.796Z,5060.00
2018-05-23T11:24:01.730Z,5144.00
2018-05-23T11:25:01.656Z,5172.00
2018-05-23T11:26:01.591Z,5128.00
2018-05-23T11:27:01.517Z,5064.00
2018-05-23T11:28:01.451Z,5112.00
2018-05-23T11:29:01.375Z,5164.00
2018-05-23T11:30:01.313Z,5212.00
2018-05-23T11:31:01.242Z,5192.00
2018-05-23T11:32:01.296Z,5264.00
2018-05-23T11:33:01.142Z,5332.00
2018-05-23T11:34:01.364Z,5484.00
2018-05-23T11:35:01.337Z,5672.00
2018-05-23T11:36:01.063Z,5872.00
2018-05-23T11:37:00.903Z,6088.00
2018-05-23T11:38:00.814Z,6364.00
2018-05-23T11:39:00.691Z,6632.00
2018-05-23T11:40:00.655Z,6912.00
2018-05-23T11:41:00.625Z,7176.00
2018-05-23T11:42:00.578Z,7388.00
2018-05-23T11:43:00.447Z,7508.00
2018-05-23T11:44:00.343Z,7596.00
2018-05-23T11:45:00.421Z,7724.00
2018-05-23T11:46:00.205Z,7848.00
2018-05-23T11:47:00.127Z,7888.00
2018-05-23T11:48:00.066Z,7784.00
2018-05-23T11:49:00.004Z,7576.00
2018-05-23T11:49:59.969Z,7404.00
2018-05-23T11:50:59.857Z,7224.00
2018-05-23T11:51:59.791Z,7136.00
2018-05-23T11:52:59.722Z,7076.00
2018-05-23T11:53:59.655Z,7060.00
2018-05-23T11:54:59.604Z,7008.00
2018-05-23T11:55:59.518Z,6936.00
2018-05-23T11:56:59.455Z,6800.00
2018-05-23T11:57:59.377Z,6600.00
2018-05-23T11:58:59.308Z,6360.00
2018-05-23T11:59:59.234Z,6160.00
2018-05-23T12:00:59.175Z,6036.00
2018-05-23T12:01:59.231Z,5928.00
2018-05-23T12:02:59.029Z,5824.00
2018-05-23T12:03:58.962Z,5788.00
2018-05-23T12:04:58.896Z,5876.00
2018-05-23T12:05:58.829Z,5996.00
2018-05-23T12:06:58.761Z,6076.00
2018-05-23T12:07:58.688Z,6096.00
2018-05-23T12:08:58.624Z,6040.00
2018-05-23T12:09:58.551Z,5908.00
2018-05-23T12:10:58.480Z,5744.00
2018-05-23T12:11:58.421Z,5568.00
2018-05-23T12:12:58.351Z,5420.00
2018-05-23T12:13:58.281Z,5240.00
2018-05-23T12:14:58.211Z,5012.00
2018-05-23T12:15:58.154Z,4780.00
2018-05-23T12:16:58.074Z,4632.00
2018-05-23T12:17:58.007Z,4560.00
2018-05-23T12:18:57.952Z,4580.00
2018-05-23T12:19:57.869Z,4704.00
2018-05-23T12:20:57.802Z,4920.00
2018-05-23T12:21:57.733Z,5224.00
2018-05-23T12:22:57.666Z,5540.00
2018-05-23T12:23:57.596Z,5876.00
2018-05-23T12:24:57.524Z,6236.00
2018-05-23T12:25:57.458Z,6480.00